EFW79YW EGKK-LEIB
Flight info
| Callsign | EFW79YW |
|---|---|
| Flight time | 1h 58m |
| Altitude | 35000 |
| Route | SFD Y47 DRAKE L151 SITET UN859 SOPIL DCT BALAN DCT EVPOK DCT NARAK DCT GAI DCT LOMRA DCT ROCAN/N0447F310 DCT PUMAL DCT XEPLA DCT BCN DCT CORDA |
| Aircraft | A321/M-SDE3FGHIRWY/LB1 |
Departure
| Time | 2026-05-06 14:12 |
|---|---|
| Airport | London Gatwick Airport (EGKK) |
Arrival
| Time | 2026-05-06 16:11 |
|---|---|
| Airport | Ibiza Airport (LEIB) |
| Time | Latitude | Longitude | Altitude | Speed | Heading |
|---|---|---|---|---|---|
| 2026-05-06 13:49 | 51.15741 | -0.16851 | 211 ft | 0 kts | 10° |
| 2026-05-06 14:02 | 51.15731 | -0.16853 | 210 ft | 4 kts | 8° |
| 2026-05-06 14:02 | 51.15704 | -0.16858 | 210 ft | 4 kts | 0° |
| 2026-05-06 14:02 | 51.15678 | -0.16854 | 210 ft | 4 kts | 339° |
| 2026-05-06 14:03 | 51.15662 | -0.16836 | 210 ft | 4 kts | 268° |
| 2026-05-06 14:03 | 51.15662 | -0.16829 | 210 ft | 0 kts | 257° |
| 2026-05-06 14:05 | 51.15661 | -0.16831 | 210 ft | 1 kts | 257° |
| 2026-05-06 14:05 | 51.15657 | -0.16863 | 210 ft | 6 kts | 257° |
| 2026-05-06 14:05 | 51.15638 | -0.16991 | 210 ft | 16 kts | 257° |
| 2026-05-06 14:06 | 51.15611 | -0.17182 | 210 ft | 19 kts | 257° |
| 2026-05-06 14:06 | 51.15579 | -0.17403 | 210 ft | 22 kts | 252° |
| 2026-05-06 14:06 | 51.15517 | -0.17561 | 210 ft | 17 kts | 262° |
| 2026-05-06 14:06 | 51.15492 | -0.17780 | 210 ft | 23 kts | 257° |
| 2026-05-06 14:07 | 51.15458 | -0.18037 | 210 ft | 22 kts | 256° |
| 2026-05-06 14:07 | 51.15418 | -0.18275 | 210 ft | 19 kts | 228° |
| 2026-05-06 14:07 | 51.15299 | -0.18254 | 210 ft | 19 kts | 168° |
| 2026-05-06 14:07 | 51.15168 | -0.18244 | 210 ft | 16 kts | 238° |
| 2026-05-06 14:08 | 51.15156 | -0.18442 | 210 ft | 22 kts | 266° |
| 2026-05-06 14:08 | 51.15127 | -0.18691 | 210 ft | 24 kts | 257° |
| 2026-05-06 14:08 | 51.15089 | -0.18967 | 210 ft | 27 kts | 258° |
| 2026-05-06 14:08 | 51.15048 | -0.19268 | 210 ft | 29 kts | 258° |
| 2026-05-06 14:09 | 51.15004 | -0.19591 | 210 ft | 30 kts | 257° |
| 2026-05-06 14:09 | 51.14958 | -0.19916 | 210 ft | 30 kts | 257° |
| 2026-05-06 14:09 | 51.14915 | -0.20251 | 210 ft | 32 kts | 258° |
| 2026-05-06 14:09 | 51.14866 | -0.20602 | 210 ft | 33 kts | 257° |
| 2026-05-06 14:10 | 51.14819 | -0.20933 | 210 ft | 27 kts | 257° |
| 2026-05-06 14:10 | 51.14779 | -0.21208 | 210 ft | 25 kts | 253° |
| 2026-05-06 14:10 | 51.14716 | -0.21400 | 210 ft | 16 kts | 184° |
| 2026-05-06 14:10 | 51.14609 | -0.21331 | 210 ft | 18 kts | 163° |
| 2026-05-06 14:11 | 51.14515 | -0.21204 | 210 ft | 20 kts | 94° |
| 2026-05-06 14:11 | 51.14539 | -0.20972 | 210 ft | 27 kts | 77° |
| 2026-05-06 14:11 | 51.14627 | -0.20340 | 211 ft | 93 kts | 77° |
| 2026-05-06 14:11 | 51.14809 | -0.19014 | 211 ft | 150 kts | 77° |
| 2026-05-06 14:12 | 51.15042 | -0.17266 | 612 ft | 160 kts | 76° |
| 2026-05-06 14:12 | 51.15289 | -0.15530 | 1195 ft | 164 kts | 75° |
| 2026-05-06 14:12 | 51.15555 | -0.13729 | 1776 ft | 170 kts | 75° |
| 2026-05-06 14:12 | 51.15820 | -0.11833 | 2244 ft | 182 kts | 76° |
| 2026-05-06 14:13 | 51.16068 | -0.09773 | 2623 ft | 198 kts | 81° |
| 2026-05-06 14:13 | 51.15935 | -0.07488 | 2866 ft | 224 kts | 110° |
| 2026-05-06 14:13 | 51.14946 | -0.05444 | 3199 ft | 248 kts | 143° |
| 2026-05-06 14:13 | 51.13291 | -0.04451 | 3669 ft | 263 kts | 170° |
| 2026-05-06 14:14 | 51.11451 | -0.04118 | 4377 ft | 268 kts | 173° |
| 2026-05-06 14:14 | 51.09602 | -0.03675 | 5129 ft | 270 kts | 166° |
| 2026-05-06 14:14 | 51.07780 | -0.02856 | 5871 ft | 273 kts | 161° |
| 2026-05-06 14:14 | 51.06582 | -0.02229 | 6367 ft | 275 kts | 161° |
| 2026-05-06 14:15 | 51.04124 | -0.00965 | 7303 ft | 280 kts | 162° |
| 2026-05-06 14:15 | 51.02244 | -0.00087 | 7986 ft | 283 kts | 163° |
| 2026-05-06 14:15 | 51.00330 | 0.00782 | 8598 ft | 290 kts | 163° |
| 2026-05-06 14:15 | 50.98377 | 0.01694 | 9209 ft | 295 kts | 163° |
| 2026-05-06 14:16 | 50.96401 | 0.02636 | 9875 ft | 298 kts | 163° |
| 2026-05-06 14:16 | 50.94412 | 0.03581 | 10548 ft | 299 kts | 163° |
| 2026-05-06 14:16 | 50.92409 | 0.04517 | 11221 ft | 301 kts | 164° |
| 2026-05-06 14:16 | 50.90393 | 0.05456 | 11870 ft | 303 kts | 164° |
| 2026-05-06 14:17 | 50.88366 | 0.06407 | 12511 ft | 305 kts | 164° |
| 2026-05-06 14:17 | 50.86325 | 0.07374 | 13123 ft | 307 kts | 164° |
| 2026-05-06 14:17 | 50.84267 | 0.08348 | 13719 ft | 310 kts | 164° |
| 2026-05-06 14:17 | 50.82193 | 0.09321 | 14305 ft | 312 kts | 165° |
| 2026-05-06 14:18 | 50.80099 | 0.10298 | 14874 ft | 315 kts | 165° |
| 2026-05-06 14:18 | 50.77988 | 0.11283 | 15441 ft | 317 kts | 165° |
| 2026-05-06 14:18 | 50.75820 | 0.11947 | 15966 ft | 319 kts | 180° |
| 2026-05-06 14:18 | 50.73601 | 0.11568 | 16347 ft | 325 kts | 193° |
| 2026-05-06 14:19 | 50.71359 | 0.10724 | 16590 ft | 338 kts | 196° |
| 2026-05-06 14:19 | 50.69041 | 0.09736 | 16764 ft | 353 kts | 196° |
| 2026-05-06 14:19 | 50.66618 | 0.08728 | 16932 ft | 367 kts | 195° |
| 2026-05-06 14:19 | 50.64095 | 0.07765 | 17095 ft | 380 kts | 194° |
| 2026-05-06 14:20 | 50.61470 | 0.06837 | 17256 ft | 393 kts | 193° |
| 2026-05-06 14:20 | 50.58765 | 0.05906 | 17538 ft | 401 kts | 193° |
| 2026-05-06 14:20 | 50.56032 | 0.04950 | 17993 ft | 404 kts | 194° |
| 2026-05-06 14:20 | 50.53320 | 0.03976 | 18438 ft | 406 kts | 194° |
| 2026-05-06 14:21 | 50.50523 | 0.02957 | 18894 ft | 409 kts | 194° |
| 2026-05-06 14:21 | 50.47746 | 0.01948 | 19340 ft | 411 kts | 194° |
| 2026-05-06 14:21 | 50.44952 | 0.00942 | 19772 ft | 413 kts | 194° |
| 2026-05-06 14:21 | 50.42177 | -0.00051 | 20192 ft | 415 kts | 193° |
| 2026-05-06 14:22 | 50.39351 | -0.01062 | 20628 ft | 417 kts | 194° |
| 2026-05-06 14:22 | 50.36522 | -0.02074 | 21038 ft | 419 kts | 194° |
| 2026-05-06 14:22 | 50.33672 | -0.03090 | 21425 ft | 421 kts | 194° |
| 2026-05-06 14:22 | 50.30805 | -0.04112 | 21803 ft | 424 kts | 194° |
| 2026-05-06 14:23 | 50.27922 | -0.05139 | 22177 ft | 426 kts | 194° |
| 2026-05-06 14:23 | 50.25025 | -0.06163 | 22536 ft | 428 kts | 193° |
| 2026-05-06 14:23 | 50.22062 | -0.06745 | 22866 ft | 432 kts | 182° |
| 2026-05-06 14:23 | 50.19065 | -0.06257 | 23201 ft | 436 kts | 167° |
| 2026-05-06 14:24 | 50.16202 | -0.04636 | 23547 ft | 439 kts | 157° |
| 2026-05-06 14:24 | 50.13430 | -0.02615 | 23875 ft | 442 kts | 155° |
| 2026-05-06 14:24 | 50.10650 | -0.00537 | 24186 ft | 444 kts | 157° |
| 2026-05-06 14:24 | 50.07737 | 0.01024 | 24514 ft | 444 kts | 165° |
| 2026-05-06 14:25 | 50.05761 | 0.01854 | 24761 ft | 444 kts | 166° |
| 2026-05-06 14:25 | 50.02758 | 0.02976 | 25106 ft | 445 kts | 168° |
| 2026-05-06 14:25 | 49.99733 | 0.04052 | 25414 ft | 446 kts | 168° |
| 2026-05-06 14:25 | 49.96711 | 0.05165 | 25709 ft | 448 kts | 167° |
| 2026-05-06 14:26 | 49.93680 | 0.06352 | 25994 ft | 450 kts | 166° |
| 2026-05-06 14:26 | 49.90652 | 0.07582 | 26277 ft | 451 kts | 166° |
| 2026-05-06 14:26 | 49.87606 | 0.08816 | 26550 ft | 453 kts | 166° |
| 2026-05-06 14:26 | 49.84551 | 0.10025 | 26820 ft | 455 kts | 166° |
| 2026-05-06 14:27 | 49.81477 | 0.11215 | 27075 ft | 456 kts | 167° |
| 2026-05-06 14:27 | 49.78391 | 0.12400 | 27335 ft | 458 kts | 167° |
| 2026-05-06 14:27 | 49.75293 | 0.13599 | 27585 ft | 459 kts | 166° |
| 2026-05-06 14:27 | 49.72193 | 0.14812 | 27832 ft | 461 kts | 166° |
| 2026-05-06 14:28 | 49.69086 | 0.16030 | 28095 ft | 461 kts | 166° |
| 2026-05-06 14:28 | 49.65975 | 0.17248 | 28401 ft | 460 kts | 166° |
| 2026-05-06 14:28 | 49.62881 | 0.18485 | 28718 ft | 459 kts | 166° |
| 2026-05-06 14:28 | 49.59791 | 0.19748 | 29027 ft | 458 kts | 166° |
| 2026-05-06 14:29 | 49.56712 | 0.21011 | 29319 ft | 458 kts | 166° |
| 2026-05-06 14:29 | 49.53637 | 0.22256 | 29614 ft | 457 kts | 166° |
| 2026-05-06 14:29 | 49.50558 | 0.23488 | 29901 ft | 456 kts | 166° |
| 2026-05-06 14:29 | 49.47496 | 0.24708 | 30179 ft | 455 kts | 166° |
| 2026-05-06 14:30 | 49.44428 | 0.25930 | 30418 ft | 455 kts | 166° |
| 2026-05-06 14:30 | 49.41361 | 0.27153 | 30667 ft | 455 kts | 166° |
| 2026-05-06 14:30 | 49.38295 | 0.28380 | 30906 ft | 455 kts | 165° |
| 2026-05-06 14:30 | 49.35231 | 0.29606 | 31145 ft | 455 kts | 165° |
| 2026-05-06 14:31 | 49.32168 | 0.30827 | 31373 ft | 455 kts | 165° |
| 2026-05-06 14:31 | 49.29107 | 0.32050 | 31602 ft | 455 kts | 165° |
| 2026-05-06 14:31 | 49.26050 | 0.33319 | 31817 ft | 455 kts | 164° |
| 2026-05-06 14:31 | 49.23045 | 0.34612 | 32019 ft | 455 kts | 164° |
| 2026-05-06 14:32 | 49.20005 | 0.35932 | 32231 ft | 455 kts | 164° |
| 2026-05-06 14:32 | 49.16952 | 0.37236 | 32455 ft | 455 kts | 164° |
| 2026-05-06 14:32 | 49.13865 | 0.38529 | 32684 ft | 454 kts | 165° |
| 2026-05-06 14:32 | 49.10853 | 0.39777 | 32885 ft | 454 kts | 164° |
| 2026-05-06 14:33 | 49.07807 | 0.41043 | 33073 ft | 454 kts | 164° |
| 2026-05-06 14:33 | 49.04756 | 0.42318 | 33288 ft | 454 kts | 164° |
| 2026-05-06 14:33 | 49.01712 | 0.43596 | 33456 ft | 454 kts | 164° |
| 2026-05-06 14:33 | 48.98662 | 0.44875 | 33654 ft | 454 kts | 164° |
| 2026-05-06 14:34 | 48.95616 | 0.46147 | 33843 ft | 454 kts | 164° |
| 2026-05-06 14:34 | 48.92574 | 0.47412 | 34034 ft | 453 kts | 164° |
| 2026-05-06 14:34 | 48.89533 | 0.48674 | 34201 ft | 454 kts | 164° |
| 2026-05-06 14:34 | 48.86487 | 0.49935 | 34387 ft | 453 kts | 164° |
| 2026-05-06 14:35 | 48.83444 | 0.51199 | 34546 ft | 454 kts | 164° |
| 2026-05-06 14:35 | 48.80400 | 0.52463 | 34705 ft | 454 kts | 164° |
| 2026-05-06 14:35 | 48.77357 | 0.53722 | 34875 ft | 454 kts | 165° |
| 2026-05-06 14:35 | 48.74307 | 0.54942 | 34961 ft | 453 kts | 165° |
| 2026-05-06 14:36 | 48.68200 | 0.57279 | 34955 ft | 453 kts | 166° |
| 2026-05-06 14:36 | 48.62098 | 0.59647 | 34957 ft | 453 kts | 165° |
| 2026-05-06 14:37 | 48.56002 | 0.62052 | 34958 ft | 453 kts | 165° |
| 2026-05-06 14:37 | 48.49896 | 0.64430 | 34958 ft | 453 kts | 165° |
| 2026-05-06 14:38 | 48.43815 | 0.66911 | 34941 ft | 453 kts | 164° |
| 2026-05-06 14:38 | 48.37731 | 0.69428 | 34923 ft | 453 kts | 164° |
| 2026-05-06 14:39 | 48.31643 | 0.71876 | 34914 ft | 453 kts | 165° |
| 2026-05-06 14:39 | 48.25550 | 0.74327 | 34903 ft | 453 kts | 165° |
| 2026-05-06 14:40 | 48.19455 | 0.76762 | 34905 ft | 453 kts | 165° |
| 2026-05-06 14:40 | 48.13354 | 0.79136 | 34912 ft | 453 kts | 165° |
| 2026-05-06 14:41 | 48.07254 | 0.81529 | 34914 ft | 453 kts | 165° |
| 2026-05-06 14:41 | 48.01152 | 0.83925 | 34918 ft | 453 kts | 165° |
| 2026-05-06 14:42 | 47.95052 | 0.86305 | 34918 ft | 453 kts | 165° |
| 2026-05-06 14:42 | 47.88945 | 0.88681 | 34897 ft | 454 kts | 165° |
| 2026-05-06 14:43 | 47.82829 | 0.91059 | 34894 ft | 454 kts | 165° |
| 2026-05-06 14:43 | 47.76713 | 0.93429 | 34895 ft | 455 kts | 165° |
| 2026-05-06 14:44 | 47.70589 | 0.95796 | 34910 ft | 455 kts | 165° |
| 2026-05-06 14:45 | 47.61406 | 0.99337 | 34950 ft | 454 kts | 165° |
| 2026-05-06 14:45 | 47.55292 | 1.01685 | 34968 ft | 454 kts | 165° |
| 2026-05-06 14:46 | 47.49177 | 1.04030 | 34957 ft | 454 kts | 165° |
| 2026-05-06 14:46 | 47.43033 | 1.06205 | 34934 ft | 454 kts | 172° |
| 2026-05-06 14:47 | 47.36731 | 1.06449 | 34923 ft | 453 kts | 182° |
| 2026-05-06 14:47 | 47.30430 | 1.06116 | 34898 ft | 454 kts | 182° |
| 2026-05-06 14:48 | 47.24159 | 1.05950 | 34891 ft | 454 kts | 181° |
| 2026-05-06 14:48 | 47.17840 | 1.05872 | 34905 ft | 453 kts | 181° |
| 2026-05-06 14:49 | 47.11530 | 1.05708 | 34902 ft | 454 kts | 181° |
| 2026-05-06 14:49 | 47.05223 | 1.05544 | 34909 ft | 453 kts | 181° |
| 2026-05-06 14:50 | 46.98912 | 1.05391 | 34888 ft | 454 kts | 182° |
| 2026-05-06 14:50 | 46.92597 | 1.05079 | 34912 ft | 453 kts | 182° |
| 2026-05-06 14:51 | 46.86292 | 1.04772 | 34917 ft | 453 kts | 182° |
| 2026-05-06 14:51 | 46.79977 | 1.04527 | 34904 ft | 454 kts | 182° |
| 2026-05-06 14:52 | 46.73671 | 1.04265 | 34915 ft | 453 kts | 182° |
| 2026-05-06 14:52 | 46.67367 | 1.03989 | 34918 ft | 453 kts | 182° |
| 2026-05-06 14:53 | 46.61058 | 1.03724 | 34904 ft | 453 kts | 182° |
| 2026-05-06 14:53 | 46.54752 | 1.03459 | 34907 ft | 453 kts | 182° |
| 2026-05-06 14:54 | 46.48471 | 1.04244 | 34880 ft | 455 kts | 169° |
| 2026-05-06 14:54 | 46.42312 | 1.06378 | 34871 ft | 456 kts | 167° |
| 2026-05-06 14:55 | 46.36157 | 1.08559 | 34899 ft | 455 kts | 168° |
| 2026-05-06 14:55 | 46.29979 | 1.10556 | 34901 ft | 455 kts | 168° |
| 2026-05-06 14:56 | 46.23802 | 1.12583 | 34916 ft | 455 kts | 168° |
| 2026-05-06 14:56 | 46.17636 | 1.14658 | 34913 ft | 455 kts | 168° |
| 2026-05-06 14:57 | 46.11476 | 1.16695 | 34913 ft | 455 kts | 168° |
| 2026-05-06 14:57 | 46.05304 | 1.18725 | 34903 ft | 454 kts | 168° |
| 2026-05-06 14:58 | 45.99141 | 1.20759 | 34890 ft | 455 kts | 169° |
| 2026-05-06 14:58 | 45.92979 | 1.22786 | 34894 ft | 454 kts | 169° |
| 2026-05-06 14:59 | 45.86818 | 1.24802 | 34877 ft | 454 kts | 169° |
| 2026-05-06 14:59 | 45.80655 | 1.26820 | 34858 ft | 454 kts | 169° |
| 2026-05-06 15:00 | 45.74495 | 1.28832 | 34853 ft | 454 kts | 169° |
| 2026-05-06 15:00 | 45.68371 | 1.30826 | 34848 ft | 454 kts | 169° |
| 2026-05-06 15:01 | 45.62170 | 1.32840 | 34844 ft | 454 kts | 169° |
| 2026-05-06 15:01 | 45.56013 | 1.34837 | 34847 ft | 454 kts | 169° |
| 2026-05-06 15:02 | 45.49861 | 1.36825 | 34851 ft | 453 kts | 169° |
| 2026-05-06 15:02 | 45.43708 | 1.38813 | 34853 ft | 454 kts | 169° |
| 2026-05-06 15:03 | 45.37589 | 1.40784 | 34857 ft | 454 kts | 169° |
| 2026-05-06 15:03 | 45.31432 | 1.42761 | 34869 ft | 454 kts | 169° |
| 2026-05-06 15:04 | 45.25279 | 1.44734 | 34893 ft | 453 kts | 170° |
| 2026-05-06 15:04 | 45.19119 | 1.46704 | 34900 ft | 453 kts | 170° |
| 2026-05-06 15:05 | 45.12967 | 1.48668 | 34906 ft | 453 kts | 170° |
| 2026-05-06 15:05 | 45.06819 | 1.50627 | 34929 ft | 453 kts | 170° |
| 2026-05-06 15:06 | 45.00666 | 1.52580 | 34929 ft | 453 kts | 170° |
| 2026-05-06 15:06 | 44.94521 | 1.54529 | 34934 ft | 453 kts | 170° |
| 2026-05-06 15:07 | 44.88382 | 1.56473 | 34937 ft | 453 kts | 171° |
| 2026-05-06 15:07 | 44.82233 | 1.58414 | 34945 ft | 452 kts | 171° |
| 2026-05-06 15:08 | 44.76099 | 1.60345 | 34956 ft | 452 kts | 171° |
| 2026-05-06 15:08 | 44.69961 | 1.62275 | 34950 ft | 451 kts | 171° |
| 2026-05-06 15:09 | 44.63838 | 1.64195 | 34955 ft | 451 kts | 171° |
| 2026-05-06 15:09 | 44.57717 | 1.66110 | 34933 ft | 451 kts | 171° |
| 2026-05-06 15:10 | 44.51594 | 1.68022 | 34904 ft | 451 kts | 171° |
| 2026-05-06 15:10 | 44.45473 | 1.69929 | 34902 ft | 450 kts | 172° |
| 2026-05-06 15:11 | 44.40392 | 1.71509 | 34916 ft | 449 kts | 172° |
| 2026-05-06 15:11 | 44.34286 | 1.73405 | 34901 ft | 450 kts | 172° |
| 2026-05-06 15:12 | 44.27181 | 1.75425 | 34915 ft | 447 kts | 175° |
| 2026-05-06 15:12 | 44.22037 | 1.76562 | 34910 ft | 447 kts | 175° |
| 2026-05-06 15:13 | 44.15889 | 1.77888 | 34903 ft | 447 kts | 175° |
| 2026-05-06 15:13 | 44.09754 | 1.79252 | 34942 ft | 446 kts | 175° |
| 2026-05-06 15:14 | 44.03628 | 1.80606 | 34939 ft | 446 kts | 175° |
| 2026-05-06 15:14 | 43.97495 | 1.81949 | 34932 ft | 446 kts | 175° |
| 2026-05-06 15:15 | 43.91391 | 1.82850 | 34940 ft | 443 kts | 180° |
| 2026-05-06 15:15 | 43.85243 | 1.83407 | 34938 ft | 443 kts | 181° |
| 2026-05-06 15:16 | 43.79093 | 1.83978 | 34926 ft | 443 kts | 180° |
| 2026-05-06 15:16 | 43.72951 | 1.84594 | 34944 ft | 443 kts | 180° |
| 2026-05-06 15:17 | 43.66805 | 1.85188 | 34950 ft | 442 kts | 180° |
| 2026-05-06 15:17 | 43.60663 | 1.85776 | 34922 ft | 443 kts | 180° |
| 2026-05-06 15:18 | 43.54511 | 1.86371 | 34936 ft | 443 kts | 180° |
| 2026-05-06 15:18 | 43.48372 | 1.86963 | 34962 ft | 442 kts | 180° |
| 2026-05-06 15:19 | 43.42246 | 1.87549 | 34958 ft | 441 kts | 180° |
| 2026-05-06 15:19 | 43.36116 | 1.88135 | 34917 ft | 442 kts | 180° |
| 2026-05-06 15:20 | 43.29979 | 1.88722 | 34889 ft | 442 kts | 180° |
| 2026-05-06 15:20 | 43.23844 | 1.89311 | 34883 ft | 442 kts | 181° |
| 2026-05-06 15:21 | 43.17716 | 1.89895 | 34894 ft | 442 kts | 181° |
| 2026-05-06 15:21 | 43.11628 | 1.90475 | 34929 ft | 441 kts | 181° |
| 2026-05-06 15:22 | 43.05475 | 1.91060 | 34947 ft | 440 kts | 181° |
| 2026-05-06 15:22 | 42.99405 | 1.91637 | 34954 ft | 440 kts | 181° |
| 2026-05-06 15:23 | 42.93306 | 1.92214 | 34961 ft | 439 kts | 181° |
| 2026-05-06 15:23 | 42.87215 | 1.92788 | 34962 ft | 438 kts | 181° |
| 2026-05-06 15:24 | 42.81144 | 1.93361 | 34956 ft | 437 kts | 181° |
| 2026-05-06 15:24 | 42.75086 | 1.93934 | 34933 ft | 436 kts | 182° |
| 2026-05-06 15:25 | 42.69042 | 1.94500 | 34915 ft | 435 kts | 182° |
| 2026-05-06 15:25 | 42.63002 | 1.95488 | 34907 ft | 438 kts | 178° |
| 2026-05-06 15:26 | 42.56993 | 1.96747 | 34952 ft | 436 kts | 178° |
| 2026-05-06 15:26 | 42.51036 | 1.97968 | 34917 ft | 435 kts | 178° |
| 2026-05-06 15:27 | 42.45048 | 1.99154 | 34875 ft | 435 kts | 178° |
| 2026-05-06 15:27 | 42.39064 | 2.00359 | 34864 ft | 435 kts | 178° |
| 2026-05-06 15:28 | 42.33094 | 2.01228 | 34898 ft | 429 kts | 182° |
| 2026-05-06 15:28 | 42.27148 | 2.01758 | 34890 ft | 428 kts | 183° |
| 2026-05-06 15:29 | 42.21190 | 2.02294 | 34870 ft | 429 kts | 183° |
| 2026-05-06 15:29 | 42.15233 | 2.02878 | 34866 ft | 429 kts | 183° |
| 2026-05-06 15:30 | 42.09274 | 2.03443 | 34875 ft | 429 kts | 183° |
| 2026-05-06 15:30 | 42.03309 | 2.04000 | 34885 ft | 429 kts | 183° |
| 2026-05-06 15:31 | 41.97352 | 2.04562 | 34892 ft | 429 kts | 183° |
| 2026-05-06 15:31 | 41.91395 | 2.05123 | 34894 ft | 429 kts | 183° |
| 2026-05-06 15:32 | 41.82456 | 2.05961 | 34899 ft | 429 kts | 183° |
| 2026-05-06 15:32 | 41.76535 | 2.06514 | 34903 ft | 429 kts | 183° |
| 2026-05-06 15:33 | 41.70577 | 2.07070 | 34903 ft | 429 kts | 183° |
| 2026-05-06 15:33 | 41.64621 | 2.07625 | 34896 ft | 429 kts | 183° |
| 2026-05-06 15:34 | 41.58671 | 2.08179 | 34924 ft | 428 kts | 183° |
| 2026-05-06 15:34 | 41.52731 | 2.08735 | 34942 ft | 428 kts | 183° |
| 2026-05-06 15:35 | 41.46792 | 2.09286 | 34922 ft | 428 kts | 183° |
| 2026-05-06 15:35 | 41.40865 | 2.09835 | 34921 ft | 427 kts | 183° |
| 2026-05-06 15:36 | 41.34931 | 2.10384 | 34903 ft | 427 kts | 183° |
| 2026-05-06 15:36 | 41.29010 | 2.11042 | 34893 ft | 429 kts | 180° |
| 2026-05-06 15:37 | 41.23080 | 2.12036 | 34892 ft | 430 kts | 180° |
| 2026-05-06 15:37 | 41.17152 | 2.13061 | 34910 ft | 429 kts | 180° |
| 2026-05-06 15:38 | 41.11244 | 2.14041 | 34938 ft | 428 kts | 180° |
| 2026-05-06 15:38 | 41.05332 | 2.15024 | 34913 ft | 428 kts | 180° |
| 2026-05-06 15:39 | 40.99414 | 2.16017 | 34901 ft | 428 kts | 180° |
| 2026-05-06 15:39 | 40.93513 | 2.17000 | 34915 ft | 428 kts | 180° |
| 2026-05-06 15:40 | 40.87647 | 2.17972 | 34905 ft | 428 kts | 180° |
| 2026-05-06 15:40 | 40.81743 | 2.18952 | 34895 ft | 428 kts | 180° |
| 2026-05-06 15:41 | 40.75842 | 2.19931 | 34914 ft | 427 kts | 180° |
| 2026-05-06 15:41 | 40.69947 | 2.20904 | 34902 ft | 427 kts | 180° |
| 2026-05-06 15:42 | 40.64049 | 2.21877 | 34894 ft | 427 kts | 180° |
| 2026-05-06 15:42 | 40.58144 | 2.22851 | 34894 ft | 427 kts | 181° |
| 2026-05-06 15:43 | 40.52247 | 2.23821 | 34911 ft | 426 kts | 181° |
| 2026-05-06 15:43 | 40.46400 | 2.24780 | 34903 ft | 427 kts | 181° |
| 2026-05-06 15:44 | 40.40474 | 2.25844 | 34899 ft | 430 kts | 178° |
| 2026-05-06 15:44 | 40.34630 | 2.27337 | 34884 ft | 431 kts | 176° |
| 2026-05-06 15:45 | 40.28763 | 2.28904 | 34883 ft | 430 kts | 176° |
| 2026-05-06 15:45 | 40.22912 | 2.30410 | 34883 ft | 427 kts | 177° |
| 2026-05-06 15:46 | 40.17093 | 2.31901 | 34885 ft | 424 kts | 177° |
| 2026-05-06 15:46 | 40.11324 | 2.33394 | 34886 ft | 421 kts | 177° |
| 2026-05-06 15:47 | 40.05539 | 2.34875 | 34926 ft | 426 kts | 177° |
| 2026-05-06 15:47 | 39.99690 | 2.36373 | 34930 ft | 430 kts | 177° |
| 2026-05-06 15:48 | 39.93828 | 2.37883 | 34633 ft | 428 kts | 177° |
| 2026-05-06 15:48 | 39.90905 | 2.38633 | 34315 ft | 427 kts | 177° |
| 2026-05-06 15:48 | 39.87987 | 2.39378 | 34073 ft | 428 kts | 177° |
| 2026-05-06 15:49 | 39.85065 | 2.40121 | 33780 ft | 428 kts | 177° |
| 2026-05-06 15:49 | 39.82143 | 2.40865 | 33229 ft | 428 kts | 177° |
| 2026-05-06 15:49 | 39.79222 | 2.41609 | 32598 ft | 429 kts | 177° |
| 2026-05-06 15:49 | 39.76287 | 2.42293 | 31928 ft | 426 kts | 180° |
| 2026-05-06 15:50 | 39.73363 | 2.42449 | 31260 ft | 417 kts | 190° |
| 2026-05-06 15:50 | 39.70494 | 2.42104 | 30622 ft | 413 kts | 193° |
| 2026-05-06 15:50 | 39.67642 | 2.41615 | 29923 ft | 413 kts | 194° |
| 2026-05-06 15:50 | 39.64792 | 2.41092 | 29191 ft | 415 kts | 194° |
| 2026-05-06 15:51 | 39.61924 | 2.40592 | 28474 ft | 415 kts | 194° |
| 2026-05-06 15:51 | 39.59120 | 2.39826 | 27809 ft | 409 kts | 201° |
| 2026-05-06 15:51 | 39.56499 | 2.38503 | 27163 ft | 401 kts | 211° |
| 2026-05-06 15:51 | 39.54169 | 2.36574 | 26496 ft | 395 kts | 221° |
| 2026-05-06 15:52 | 39.52207 | 2.34116 | 25855 ft | 390 kts | 231° |
| 2026-05-06 15:52 | 39.50623 | 2.31292 | 25243 ft | 386 kts | 238° |
| 2026-05-06 15:52 | 39.49189 | 2.28366 | 24613 ft | 384 kts | 238° |
| 2026-05-06 15:52 | 39.47773 | 2.25445 | 23971 ft | 382 kts | 238° |
| 2026-05-06 15:53 | 39.46344 | 2.22561 | 23338 ft | 380 kts | 238° |
| 2026-05-06 15:53 | 39.44897 | 2.19718 | 22738 ft | 377 kts | 237° |
| 2026-05-06 15:53 | 39.43446 | 2.16901 | 22114 ft | 375 kts | 237° |
| 2026-05-06 15:53 | 39.42006 | 2.14100 | 21475 ft | 373 kts | 237° |
| 2026-05-06 15:54 | 39.40578 | 2.11303 | 20860 ft | 371 kts | 237° |
| 2026-05-06 15:54 | 39.39166 | 2.08530 | 20257 ft | 368 kts | 237° |
| 2026-05-06 15:54 | 39.37762 | 2.05777 | 19659 ft | 366 kts | 237° |
| 2026-05-06 15:54 | 39.36381 | 2.03073 | 19046 ft | 364 kts | 237° |
| 2026-05-06 15:55 | 39.34974 | 2.00319 | 18431 ft | 362 kts | 237° |
| 2026-05-06 15:55 | 39.33607 | 1.97650 | 17856 ft | 359 kts | 238° |
| 2026-05-06 15:55 | 39.32233 | 1.94971 | 17247 ft | 358 kts | 238° |
| 2026-05-06 15:55 | 39.30862 | 1.92294 | 16625 ft | 356 kts | 238° |
| 2026-05-06 15:56 | 39.29495 | 1.89630 | 16032 ft | 355 kts | 238° |
| 2026-05-06 15:56 | 39.28138 | 1.86985 | 15451 ft | 353 kts | 238° |
| 2026-05-06 15:56 | 39.26784 | 1.84348 | 14865 ft | 351 kts | 238° |
| 2026-05-06 15:56 | 39.25436 | 1.81727 | 14269 ft | 350 kts | 238° |
| 2026-05-06 15:57 | 39.24089 | 1.79110 | 13677 ft | 350 kts | 238° |
| 2026-05-06 15:57 | 39.22746 | 1.76500 | 13089 ft | 349 kts | 238° |
| 2026-05-06 15:57 | 39.21405 | 1.73901 | 12534 ft | 347 kts | 238° |
| 2026-05-06 15:57 | 39.20036 | 1.71349 | 11939 ft | 347 kts | 235° |
| 2026-05-06 15:58 | 39.18590 | 1.68860 | 11369 ft | 345 kts | 234° |
| 2026-05-06 15:58 | 39.17149 | 1.66442 | 11029 ft | 334 kts | 233° |
| 2026-05-06 15:58 | 39.15757 | 1.64124 | 10877 ft | 319 kts | 233° |
| 2026-05-06 15:58 | 39.14435 | 1.61908 | 10739 ft | 305 kts | 233° |
| 2026-05-06 15:59 | 39.13175 | 1.59783 | 10610 ft | 291 kts | 233° |
| 2026-05-06 15:59 | 39.11967 | 1.57743 | 10388 ft | 283 kts | 233° |
| 2026-05-06 15:59 | 39.10780 | 1.55736 | 9991 ft | 281 kts | 233° |
| 2026-05-06 15:59 | 39.09590 | 1.53728 | 9539 ft | 283 kts | 233° |
| 2026-05-06 16:00 | 39.08388 | 1.51706 | 9109 ft | 285 kts | 233° |
| 2026-05-06 16:00 | 39.07191 | 1.49696 | 8697 ft | 287 kts | 233° |
| 2026-05-06 16:00 | 39.05963 | 1.47632 | 8284 ft | 286 kts | 233° |
| 2026-05-06 16:00 | 39.04756 | 1.45602 | 7883 ft | 285 kts | 233° |
| 2026-05-06 16:01 | 39.03962 | 1.44264 | 7625 ft | 283 kts | 233° |
| 2026-05-06 16:01 | 39.02785 | 1.42239 | 7216 ft | 282 kts | 233° |
| 2026-05-06 16:01 | 39.01247 | 1.39552 | 6706 ft | 280 kts | 233° |
| 2026-05-06 16:01 | 39.00090 | 1.37546 | 6301 ft | 279 kts | 233° |
| 2026-05-06 16:02 | 38.98931 | 1.35549 | 5899 ft | 278 kts | 233° |
| 2026-05-06 16:02 | 38.97776 | 1.33566 | 5508 ft | 276 kts | 233° |
| 2026-05-06 16:02 | 38.97002 | 1.32232 | 5263 ft | 275 kts | 233° |
| 2026-05-06 16:02 | 38.95858 | 1.30263 | 4893 ft | 274 kts | 233° |
| 2026-05-06 16:03 | 38.94719 | 1.28303 | 4503 ft | 273 kts | 233° |
| 2026-05-06 16:03 | 38.93584 | 1.26350 | 4128 ft | 272 kts | 233° |
| 2026-05-06 16:03 | 38.92492 | 1.24449 | 3933 ft | 263 kts | 234° |
| 2026-05-06 16:03 | 38.91446 | 1.22572 | 3813 ft | 253 kts | 234° |
| 2026-05-06 16:04 | 38.90427 | 1.20790 | 3695 ft | 241 kts | 233° |
| 2026-05-06 16:04 | 38.89437 | 1.19112 | 3590 ft | 229 kts | 232° |
| 2026-05-06 16:04 | 38.88549 | 1.17486 | 3524 ft | 214 kts | 238° |
| 2026-05-06 16:04 | 38.87863 | 1.15882 | 3407 ft | 201 kts | 242° |
| 2026-05-06 16:05 | 38.86970 | 1.14501 | 2876 ft | 206 kts | 213° |
| 2026-05-06 16:05 | 38.85601 | 1.14045 | 2436 ft | 204 kts | 178° |
| 2026-05-06 16:05 | 38.84202 | 1.14266 | 2094 ft | 203 kts | 169° |
| 2026-05-06 16:05 | 38.82817 | 1.14525 | 1998 ft | 196 kts | 171° |
| 2026-05-06 16:06 | 38.81496 | 1.14713 | 1996 ft | 188 kts | 171° |
| 2026-05-06 16:06 | 38.80267 | 1.15218 | 1982 ft | 186 kts | 146° |
| 2026-05-06 16:06 | 38.79476 | 1.16477 | 1990 ft | 183 kts | 111° |
| 2026-05-06 16:06 | 38.79350 | 1.18056 | 2002 ft | 181 kts | 81° |
| 2026-05-06 16:07 | 38.79821 | 1.19535 | 2015 ft | 180 kts | 62° |
| 2026-05-06 16:07 | 38.80590 | 1.20802 | 2013 ft | 181 kts | 52° |
| 2026-05-06 16:07 | 38.81146 | 1.22229 | 2011 ft | 180 kts | 72° |
| 2026-05-06 16:07 | 38.81641 | 1.23696 | 2009 ft | 180 kts | 64° |
| 2026-05-06 16:08 | 38.82221 | 1.25117 | 1869 ft | 179 kts | 63° |
| 2026-05-06 16:08 | 38.82811 | 1.26518 | 1648 ft | 178 kts | 63° |
| 2026-05-06 16:08 | 38.83387 | 1.27911 | 1419 ft | 176 kts | 64° |
| 2026-05-06 16:08 | 38.83942 | 1.29250 | 1185 ft | 163 kts | 64° |
| 2026-05-06 16:09 | 38.84455 | 1.30483 | 981 ft | 149 kts | 65° |
| 2026-05-06 16:09 | 38.84919 | 1.31603 | 809 ft | 136 kts | 65° |
| 2026-05-06 16:09 | 38.85354 | 1.32655 | 629 ft | 133 kts | 65° |
| 2026-05-06 16:09 | 38.85786 | 1.33698 | 443 ft | 132 kts | 65° |
| 2026-05-06 16:10 | 38.86218 | 1.34741 | 265 ft | 132 kts | 65° |
| 2026-05-06 16:10 | 38.86647 | 1.35780 | 88 ft | 132 kts | 65° |
| 2026-05-06 16:10 | 38.87049 | 1.36758 | 35 ft | 112 kts | 64° |
| 2026-05-06 16:10 | 38.87332 | 1.37425 | 35 ft | 61 kts | 62° |
| 2026-05-06 16:11 | 38.87462 | 1.37739 | 35 ft | 30 kts | 62° |
| 2026-05-06 16:11 | 38.87560 | 1.37977 | 35 ft | 30 kts | 63° |
| 2026-05-06 16:11 | 38.87654 | 1.38204 | 35 ft | 20 kts | 60° |
| 2026-05-06 16:11 | 38.87725 | 1.38239 | 35 ft | 10 kts | 326° |
| 2026-05-06 16:12 | 38.87795 | 1.38178 | 35 ft | 13 kts | 308° |
| 2026-05-06 16:12 | 38.87776 | 1.38054 | 35 ft | 17 kts | 242° |
| 2026-05-06 16:12 | 38.87715 | 1.37904 | 35 ft | 21 kts | 242° |
| 2026-05-06 16:12 | 38.87641 | 1.37727 | 35 ft | 24 kts | 242° |
| 2026-05-06 16:13 | 38.87579 | 1.37569 | 35 ft | 8 kts | 266° |
| 2026-05-06 16:13 | 38.87627 | 1.37523 | 35 ft | 11 kts | 334° |
| 2026-05-06 16:13 | 38.87706 | 1.37473 | 35 ft | 12 kts | 328° |
| 2026-05-06 16:13 | 38.87685 | 1.37383 | 35 ft | 15 kts | 229° |
| 2026-05-06 16:14 | 38.87633 | 1.37286 | 35 ft | 12 kts | 226° |
| 2026-05-06 16:14 | 38.87555 | 1.37276 | 35 ft | 9 kts | 193° |
| 2026-05-06 16:14 | 38.87502 | 1.37218 | 35 ft | 12 kts | 237° |
| 2026-05-06 16:14 | 38.87483 | 1.37162 | 35 ft | 4 kts | 293° |
| 2026-05-06 16:15 | 38.87505 | 1.37153 | 35 ft | 4 kts | 6° |
| 2026-05-06 16:15 | 38.87512 | 1.37155 | 35 ft | 0 kts | 13° |